createdAt,value
2018-03-30T00:00:16.242Z,32.80
2018-03-30T00:02:44.542Z,30.97
2018-03-30T00:05:12.886Z,31.47
2018-03-30T00:07:41.194Z,28.27
2018-03-30T00:10:09.526Z,32.73
2018-03-30T00:12:37.852Z,33.63
2018-03-30T00:15:06.243Z,31.73
2018-03-30T00:17:34.579Z,33.67
2018-03-30T00:20:02.950Z,35.03
2018-03-30T00:22:31.261Z,29.30
2018-03-30T00:24:59.607Z,33.13
2018-03-30T00:27:27.902Z,30.03
2018-03-30T00:29:56.254Z,33.60
2018-03-30T00:32:24.574Z,31.73
2018-03-30T00:34:52.873Z,30.73
2018-03-30T00:37:22.015Z,32.60
2018-03-30T00:39:50.317Z,36.00
2018-03-30T00:42:18.657Z,36.40
2018-03-30T00:44:47.019Z,33.40
2018-03-30T00:47:15.365Z,34.43
2018-03-30T00:49:43.678Z,33.50
2018-03-30T00:52:12.762Z,33.33
2018-03-30T00:54:41.058Z,30.90
2018-03-30T00:57:09.414Z,33.73
2018-03-30T00:59:38.626Z,34.57
2018-03-30T01:02:06.978Z,31.33
2018-03-30T01:04:35.291Z,32.50
2018-03-30T01:07:03.621Z,31.73
2018-03-30T01:09:31.925Z,32.07
2018-03-30T01:12:00.350Z,31.83
2018-03-30T01:14:28.667Z,32.30
2018-03-30T01:16:57.798Z,32.77
2018-03-30T01:19:26.103Z,30.47
2018-03-30T01:21:54.750Z,30.90
2018-03-30T01:24:23.846Z,31.13
2018-03-30T01:26:52.184Z,29.37
2018-03-30T01:29:21.310Z,29.17
2018-03-30T01:31:50.379Z,31.40
2018-03-30T01:34:19.501Z,31.57
2018-03-30T01:36:47.830Z,30.37
2018-03-30T01:39:16.173Z,31.23
2018-03-30T01:41:44.474Z,33.00
2018-03-30T01:44:13.109Z,34.20
2018-03-30T01:46:42.183Z,30.70
2018-03-30T01:49:11.294Z,31.73
2018-03-30T01:51:39.624Z,31.53
2018-03-30T01:54:07.958Z,30.00
2018-03-30T01:56:37.027Z,31.40
2018-03-30T01:59:05.437Z,31.80
2018-03-30T02:01:33.742Z,36.37
2018-03-30T02:04:02.098Z,30.57
2018-03-30T02:06:30.447Z,33.80
2018-03-30T02:08:59.567Z,34.63
2018-03-30T02:11:27.891Z,32.37
2018-03-30T02:13:56.298Z,33.57
2018-03-30T02:16:24.606Z,32.70
2018-03-30T02:18:59.026Z,33.13
2018-03-30T02:21:27.334Z,32.63
2018-03-30T02:23:55.757Z,29.30
2018-03-30T02:26:24.830Z,27.90
2018-03-30T02:28:53.914Z,28.90
2018-03-30T02:31:22.259Z,30.50
2018-03-30T02:33:50.607Z,31.30
2018-03-30T02:36:19.705Z,32.03
2018-03-30T02:38:48.014Z,27.80
2018-03-30T02:41:16.444Z,29.07
2018-03-30T02:43:45.521Z,30.00
2018-03-30T02:46:13.838Z,30.53
2018-03-30T02:48:42.154Z,33.50
2018-03-30T02:51:12.011Z,30.80
2018-03-30T02:53:41.082Z,31.77
2018-03-30T02:56:09.438Z,29.20
2018-03-30T02:58:37.745Z,30.23
2018-03-30T03:01:06.082Z,29.77
2018-03-30T03:03:34.729Z,31.10
2018-03-30T03:06:03.079Z,29.63
2018-03-30T03:08:31.404Z,31.03
2018-03-30T03:10:59.738Z,29.03
2018-03-30T03:13:28.839Z,28.80
2018-03-30T03:15:57.959Z,31.50
2018-03-30T03:18:26.377Z,30.27
2018-03-30T03:20:54.720Z,32.13
2018-03-30T03:23:23.038Z,27.97
2018-03-30T03:25:51.390Z,26.60
2018-03-30T03:28:19.706Z,29.93
2018-03-30T03:30:48.071Z,30.93
2018-03-30T03:33:16.382Z,29.00
2018-03-30T03:35:44.698Z,29.30
2018-03-30T03:38:13.047Z,32.77
2018-03-30T03:40:41.357Z,29.17
2018-03-30T03:43:10.109Z,27.13
2018-03-30T03:45:38.422Z,28.93
2018-03-30T03:48:06.835Z,26.77
2018-03-30T03:50:35.918Z,28.60
2018-03-30T03:53:04.300Z,31.00
2018-03-30T03:55:32.601Z,31.40
2018-03-30T03:58:01.710Z,27.73
2018-03-30T04:00:30.023Z,31.37
2018-03-30T04:02:58.350Z,29.97
2018-03-30T04:05:26.677Z,28.37
2018-03-30T04:07:55.107Z,28.10
2018-03-30T04:10:24.217Z,30.90
2018-03-30T04:12:52.585Z,27.90
2018-03-30T04:15:21.659Z,29.93
2018-03-30T04:17:50.792Z,28.90
2018-03-30T04:20:19.100Z,30.47
2018-03-30T04:22:47.444Z,29.47
2018-03-30T04:25:15.773Z,30.10
2018-03-30T04:27:44.929Z,28.97
2018-03-30T04:30:13.237Z,28.20
2018-03-30T04:32:41.559Z,31.00
2018-03-30T04:35:09.938Z,31.57
2018-03-30T04:37:38.251Z,30.20
2018-03-30T04:40:06.598Z,31.90
2018-03-30T04:42:34.954Z,31.67
2018-03-30T04:45:03.319Z,30.70
2018-03-30T04:47:32.401Z,33.23
2018-03-30T04:50:00.770Z,31.20
2018-03-30T04:52:29.070Z,33.20
2018-03-30T04:54:57.442Z,33.50
2018-03-30T04:57:26.538Z,33.43
2018-03-30T04:59:54.886Z,30.03
2018-03-30T05:02:23.220Z,29.03
2018-03-30T05:04:51.572Z,29.10
2018-03-30T05:07:19.875Z,31.30
2018-03-30T05:09:49.159Z,30.47
2018-03-30T05:12:18.235Z,30.80
2018-03-30T05:14:46.577Z,33.90
2018-03-30T05:17:14.894Z,31.40
2018-03-30T05:19:43.506Z,31.90
2018-03-30T05:22:11.834Z,29.60
2018-03-30T05:24:40.177Z,30.17
2018-03-30T05:27:08.510Z,31.90
2018-03-30T05:29:36.877Z,29.80
2018-03-30T05:32:05.200Z,29.93
2018-03-30T05:34:33.778Z,29.00
2018-03-30T05:37:02.141Z,26.70
2018-03-30T05:39:31.228Z,31.73
2018-03-30T05:41:59.561Z,28.30
2018-03-30T05:44:27.884Z,31.67
2018-03-30T05:46:56.991Z,30.30
2018-03-30T05:49:25.321Z,30.83
2018-03-30T05:51:53.665Z,32.23
2018-03-30T05:54:21.977Z,27.00
2018-03-30T05:56:50.394Z,28.17
2018-03-30T05:59:18.985Z,30.17
2018-03-30T06:01:48.095Z,27.43
2018-03-30T06:04:16.418Z,29.63
2018-03-30T06:06:44.751Z,28.20
2018-03-30T06:09:13.053Z,29.40
2018-03-30T06:11:41.482Z,27.60
2018-03-30T06:14:10.553Z,27.40
2018-03-30T06:16:38.901Z,27.20
2018-03-30T06:19:07.561Z,27.97
2018-03-30T06:21:35.911Z,26.50
2018-03-30T06:24:04.995Z,28.97
2018-03-30T06:26:33.328Z,27.57
2018-03-30T06:29:01.646Z,30.70
2018-03-30T06:31:30.043Z,30.80
2018-03-30T06:33:58.363Z,29.80
2018-03-30T06:36:26.680Z,29.83
2018-03-30T06:38:55.050Z,28.93
2018-03-30T06:41:23.362Z,25.13
2018-03-30T06:43:51.704Z,25.70
2018-03-30T06:46:20.007Z,29.30
2018-03-30T06:48:48.350Z,28.80
2018-03-30T06:51:17.078Z,25.60
2018-03-30T06:53:45.494Z,31.23
2018-03-30T06:56:14.234Z,28.07
2018-03-30T06:58:43.342Z,27.37
2018-03-30T07:01:11.655Z,27.73
2018-03-30T07:03:39.990Z,25.23
2018-03-30T07:06:09.053Z,26.17
2018-03-30T07:08:37.405Z,24.03
2018-03-30T07:11:05.719Z,26.23
2018-03-30T07:13:34.090Z,26.97
2018-03-30T07:16:03.407Z,27.80
2018-03-30T07:18:32.610Z,29.03
2018-03-30T07:21:02.118Z,26.20
2018-03-30T07:23:30.524Z,27.30
2018-03-30T07:25:58.829Z,25.63
2018-03-30T07:28:27.170Z,25.00
2018-03-30T07:30:55.475Z,26.50
2018-03-30T07:33:23.810Z,26.80
2018-03-30T07:35:52.998Z,29.07
2018-03-30T07:38:22.665Z,24.77
2018-03-30T07:40:50.891Z,28.30
2018-03-30T07:43:19.199Z,26.10
2018-03-30T07:45:48.154Z,29.07
2018-03-30T07:48:17.209Z,32.60
2018-03-30T07:50:45.542Z,25.67
2018-03-30T07:53:13.878Z,25.27
2018-03-30T07:55:42.996Z,31.62
2018-03-30T07:58:11.298Z,28.27
2018-03-30T08:00:39.648Z,27.97
2018-03-30T08:03:08.018Z,25.60
2018-03-30T08:05:37.138Z,28.60
2018-03-30T08:08:05.453Z,27.60
2018-03-30T08:10:33.861Z,26.73
2018-03-30T08:13:02.935Z,25.13
2018-03-30T08:15:31.270Z,24.57
2018-03-30T08:17:59.576Z,24.83
2018-03-30T08:20:29.054Z,22.73
2018-03-30T08:22:57.358Z,39.47
2018-03-30T08:25:25.726Z,29.87
2018-03-30T08:27:54.053Z,26.47
2018-03-30T08:30:23.160Z,26.73
2018-03-30T08:32:51.493Z,23.80
2018-03-30T08:35:20.994Z,27.93
2018-03-30T08:37:50.112Z,23.50
2018-03-30T08:40:19.197Z,28.80
2018-03-30T08:42:47.547Z,25.03
2018-03-30T08:45:15.875Z,29.40
2018-03-30T08:47:44.977Z,25.70
2018-03-30T08:50:13.298Z,23.00
2018-03-30T08:52:41.650Z,25.30
2018-03-30T08:55:10.227Z,24.13
2018-03-30T08:57:38.572Z,23.10
2018-03-30T09:00:07.660Z,22.93
2018-03-30T09:02:36.782Z,20.23
2018-03-30T09:05:05.123Z,16.67
2018-03-30T09:07:33.466Z,17.53
2018-03-30T09:10:01.776Z,17.10
2018-03-30T09:12:30.117Z,17.73
2018-03-30T09:14:58.427Z,17.73
2018-03-30T09:17:28.283Z,18.47
2018-03-30T09:19:56.622Z,19.47
2018-03-30T09:22:24.955Z,17.70
2018-03-30T09:24:53.270Z,16.87
2018-03-30T09:27:21.602Z,18.90
2018-03-30T09:29:53.835Z,17.57
2018-03-30T09:32:22.437Z,19.63
2018-03-30T09:34:50.814Z,16.50
2018-03-30T09:37:19.175Z,15.57
2018-03-30T09:39:47.498Z,15.40
2018-03-30T09:42:15.943Z,18.70
2018-03-30T09:44:44.293Z,15.87
2018-03-30T09:47:12.654Z,15.80
2018-03-30T09:49:40.971Z,19.80
2018-03-30T09:52:09.291Z,20.93
2018-03-30T09:54:37.654Z,17.73
2018-03-30T09:57:05.991Z,17.37
2018-03-30T09:59:34.593Z,18.70
2018-03-30T10:02:03.667Z,20.97
2018-03-30T10:04:32.786Z,16.90
2018-03-30T10:07:01.131Z,18.20
2018-03-30T10:09:30.258Z,17.03
2018-03-30T10:11:58.601Z,17.20
2018-03-30T10:14:26.961Z,18.23
2018-03-30T10:16:55.277Z,18.77
2018-03-30T10:19:23.634Z,18.30
2018-03-30T10:21:51.946Z,17.13
2018-03-30T10:24:20.628Z,19.47
2018-03-30T10:26:48.937Z,20.90
2018-03-30T10:29:18.110Z,17.70
2018-03-30T10:31:46.642Z,17.77
2018-03-30T10:34:15.058Z,17.60
2018-03-30T10:36:44.145Z,17.27
2018-03-30T10:39:13.263Z,24.20
2018-03-30T10:41:41.619Z,21.60
2018-03-30T10:44:09.998Z,16.10
2018-03-30T10:46:38.326Z,16.47
2018-03-30T10:49:06.639Z,17.80
2018-03-30T10:51:35.035Z,17.27
2018-03-30T10:54:04.116Z,14.30
2018-03-30T10:56:33.583Z,16.63
2018-03-30T10:59:01.955Z,17.73
2018-03-30T11:01:31.459Z,18.03
2018-03-30T11:03:59.775Z,17.03
2018-03-30T11:06:35.143Z,16.57
2018-03-30T11:09:03.452Z,15.70
2018-03-30T11:11:31.833Z,13.30
2018-03-30T11:14:00.150Z,17.17
2018-03-30T11:16:29.274Z,17.43
2018-03-30T11:18:57.595Z,17.73
2018-03-30T11:21:26.783Z,15.17
2018-03-30T11:23:56.609Z,15.80
2018-03-30T11:26:24.962Z,16.13
2018-03-30T11:28:53.506Z,16.57
2018-03-30T11:31:22.611Z,17.13
2018-03-30T11:33:50.963Z,18.60
2018-03-30T11:42:18.323Z,18.10
2018-03-30T11:47:43.981Z,17.03
2018-03-30T11:50:13.057Z,16.20
2018-03-30T11:52:41.410Z,18.07
2018-03-30T11:55:09.774Z,18.20
2018-03-30T11:57:38.137Z,18.40
2018-03-30T12:00:06.450Z,15.57
2018-03-30T12:02:34.810Z,16.40
2018-03-30T12:05:03.144Z,17.27
2018-03-30T12:07:32.249Z,16.40
2018-03-30T12:10:00.575Z,16.17
2018-03-30T12:12:28.953Z,18.93
2018-03-30T12:14:57.325Z,16.47
2018-03-30T12:17:25.698Z,15.10
2018-03-30T12:19:53.998Z,21.03
2018-03-30T12:22:22.354Z,17.47
2018-03-30T12:24:50.649Z,18.93
2018-03-30T12:27:18.958Z,18.20
2018-03-30T12:29:48.080Z,16.77
2018-03-30T12:32:16.514Z,14.87
2018-03-30T12:34:45.517Z,18.67
2018-03-30T12:37:13.830Z,22.27
2018-03-30T12:39:42.197Z,26.90
2018-03-30T12:42:11.261Z,25.70
2018-03-30T12:44:39.597Z,22.90
2018-03-30T12:47:07.938Z,21.50
2018-03-30T12:49:37.041Z,21.27
2018-03-30T12:52:05.355Z,20.90
2018-03-30T12:54:33.690Z,18.90
2018-03-30T12:57:02.007Z,17.80
2018-03-30T12:59:30.354Z,19.07
2018-03-30T13:01:58.729Z,18.47
2018-03-30T13:04:27.087Z,16.90
2018-03-30T13:06:56.174Z,18.60
2018-03-30T13:09:25.277Z,20.97
2018-03-30T13:11:53.629Z,18.07
2018-03-30T13:14:21.975Z,17.40
2018-03-30T13:16:50.314Z,16.73
2018-03-30T13:19:19.429Z,17.67
2018-03-30T13:21:47.734Z,20.17
2018-03-30T13:24:16.378Z,22.93
2018-03-30T13:26:44.694Z,21.70
2018-03-30T13:29:13.002Z,19.17
2018-03-30T13:31:41.354Z,18.37
2018-03-30T13:34:09.664Z,16.70
2018-03-30T13:36:38.787Z,18.13
2018-03-30T13:39:07.106Z,17.47
2018-03-30T13:41:36.970Z,18.63
2018-03-30T13:47:03.365Z,18.43
2018-03-30T13:49:31.662Z,17.53
2018-03-30T13:52:00.010Z,20.03
2018-03-30T13:54:28.322Z,19.40
2018-03-30T13:56:57.598Z,21.17
2018-03-30T13:59:27.590Z,20.37
2018-03-30T14:15:19.919Z,15.03
2018-03-30T14:31:29.050Z,23.63
2018-03-30T14:33:58.950Z,19.00
2018-03-30T14:50:08.372Z,22.50
2018-03-30T14:52:39.580Z,19.30
2018-03-30T15:08:29.191Z,19.60
2018-03-30T15:11:35.002Z,19.63
2018-03-30T15:14:09.109Z,21.00
2018-03-30T15:16:39.223Z,20.73
2018-03-30T15:19:09.254Z,19.07
2018-03-30T15:21:39.168Z,16.83
2018-03-30T15:24:09.998Z,20.20
2018-03-30T15:26:42.929Z,28.00
2018-03-30T15:29:21.994Z,19.87
2018-03-30T15:31:57.483Z,17.87
2018-03-30T15:34:26.629Z,21.13
2018-03-30T15:36:57.678Z,17.40
2018-03-30T15:39:26.020Z,18.00
2018-03-30T15:41:54.330Z,19.80
2018-03-30T15:44:24.465Z,21.47
2018-03-30T15:46:56.315Z,19.10
2018-03-30T15:49:25.596Z,18.97
2018-03-30T15:51:55.355Z,23.50
2018-03-30T15:54:23.950Z,19.87
2018-03-30T15:56:53.231Z,19.60
2018-03-30T15:59:21.566Z,19.57
2018-03-30T16:01:49.886Z,18.67
2018-03-30T16:04:18.455Z,20.13
2018-03-30T16:06:47.534Z,24.50
2018-03-30T16:09:29.230Z,18.37
2018-03-30T16:12:01.091Z,18.70
2018-03-30T16:14:29.446Z,19.23
2018-03-30T16:16:57.773Z,18.93
2018-03-30T16:19:25.613Z,16.20
2018-03-30T16:21:54.219Z,16.30
2018-03-30T16:24:22.030Z,17.63
2018-03-30T16:26:49.882Z,18.70
2018-03-30T16:29:17.727Z,18.03
2018-03-30T16:31:45.617Z,19.13
2018-03-30T16:34:13.434Z,18.23
2018-03-30T16:36:41.287Z,17.80
2018-03-30T16:39:09.113Z,17.90
2018-03-30T16:41:36.966Z,19.67
2018-03-30T16:44:05.094Z,18.17
2018-03-30T16:46:32.948Z,18.10
2018-03-30T16:49:01.546Z,21.33
2018-03-30T16:51:30.200Z,18.40
2018-03-30T16:53:58.032Z,20.90
2018-03-30T16:56:25.866Z,20.30
2018-03-30T16:58:53.739Z,19.43
2018-03-30T17:01:21.550Z,18.87
2018-03-30T17:03:49.404Z,17.03
2018-03-30T17:06:17.326Z,18.37
2018-03-30T17:08:45.288Z,19.77
2018-03-30T17:11:13.926Z,18.20
2018-03-30T17:13:41.803Z,21.70
2018-03-30T17:16:09.685Z,20.47
2018-03-30T17:18:37.494Z,19.17
2018-03-30T17:21:05.311Z,20.93
2018-03-30T17:23:33.934Z,19.87
2018-03-30T17:26:01.758Z,19.13
2018-03-30T17:28:29.862Z,21.03
2018-03-30T17:30:57.686Z,24.57
2018-03-30T17:33:26.629Z,19.50
2018-03-30T17:35:54.484Z,19.57
2018-03-30T17:38:23.125Z,21.80
2018-03-30T17:40:52.470Z,24.70
2018-03-30T17:43:20.299Z,20.50
2018-03-30T17:45:48.945Z,22.53
2018-03-30T17:48:16.795Z,20.00
2018-03-30T17:50:44.654Z,23.87
2018-03-30T17:53:12.490Z,21.57
2018-03-30T17:55:41.192Z,20.37
2018-03-30T17:58:09.766Z,21.37
2018-03-30T18:00:37.617Z,19.10
2018-03-30T18:03:05.441Z,22.90
2018-03-30T18:05:33.298Z,21.60
2018-03-30T18:08:01.834Z,22.00
2018-03-30T18:10:29.690Z,18.73
2018-03-30T18:12:57.507Z,19.63
2018-03-30T18:15:25.369Z,19.83
2018-03-30T18:17:53.203Z,19.23
2018-03-30T18:20:21.822Z,20.07
2018-03-30T18:22:49.661Z,19.23
2018-03-30T18:25:18.562Z,23.93
2018-03-30T18:27:46.403Z,20.47
2018-03-30T18:30:14.263Z,22.13
2018-03-30T18:32:42.320Z,20.17
2018-03-30T18:35:10.171Z,21.23
2018-03-30T18:37:37.994Z,21.13
2018-03-30T18:40:05.875Z,19.43
2018-03-30T18:42:33.720Z,19.80
2018-03-30T18:45:01.554Z,18.77
2018-03-30T18:47:29.443Z,21.00
2018-03-30T18:49:58.035Z,21.10
2018-03-30T18:52:27.016Z,23.37
2018-03-30T18:54:55.594Z,20.77
2018-03-30T18:57:23.466Z,21.73
2018-03-30T18:59:51.306Z,24.00
2018-03-30T19:02:20.666Z,24.10
2018-03-30T19:04:48.485Z,23.57
2018-03-30T19:07:17.971Z,23.93
2018-03-30T19:09:45.684Z,23.00
2018-03-30T19:12:13.543Z,24.40
2018-03-30T19:14:42.111Z,23.23
2018-03-30T19:17:10.724Z,26.37
2018-03-30T19:19:38.575Z,24.27
2018-03-30T19:22:06.448Z,24.20
2018-03-30T19:24:35.023Z,23.97
2018-03-30T19:27:02.898Z,22.80
2018-03-30T19:29:31.577Z,20.90
2018-03-30T19:32:00.466Z,19.90
2018-03-30T19:34:28.306Z,21.00
2018-03-30T19:36:56.149Z,22.03
2018-03-30T19:39:23.969Z,20.63
2018-03-30T19:41:51.929Z,23.00
2018-03-30T19:44:20.607Z,23.50
2018-03-30T19:46:49.225Z,20.73
2018-03-30T19:49:17.041Z,21.80
2018-03-30T19:51:45.686Z,22.30
2018-03-30T20:07:08.205Z,21.23
2018-03-30T20:09:36.075Z,21.20
2018-03-30T20:12:04.894Z,19.53
2018-03-30T20:14:32.734Z,20.10
2018-03-30T20:17:00.582Z,20.47
2018-03-30T20:19:28.562Z,19.47
2018-03-30T20:21:56.436Z,21.60
2018-03-30T20:24:24.438Z,21.00
2018-03-30T20:26:52.314Z,19.37
2018-03-30T20:29:20.933Z,18.97
2018-03-30T20:31:49.534Z,21.00
2018-03-30T20:34:17.382Z,20.30
2018-03-30T20:36:45.331Z,19.27
2018-03-30T20:39:13.291Z,19.40
2018-03-30T20:41:41.226Z,16.70
2018-03-30T20:44:09.066Z,18.97
2018-03-30T20:46:37.698Z,18.03
2018-03-30T20:49:05.567Z,18.27
2018-03-30T20:51:34.150Z,17.50
2018-03-30T20:54:02.770Z,20.10
2018-03-30T20:56:30.587Z,21.13
2018-03-30T20:58:59.203Z,19.27
2018-03-30T21:01:27.043Z,19.73
2018-03-30T21:03:55.658Z,17.53
2018-03-30T21:06:23.459Z,22.53
2018-03-30T21:08:51.335Z,20.03
2018-03-30T21:11:19.165Z,20.20
2018-03-30T21:13:46.978Z,20.43
2018-03-30T21:16:14.941Z,23.70
2018-03-30T21:18:42.757Z,18.00
2018-03-30T21:21:10.598Z,18.90
2018-03-30T21:23:39.490Z,19.27
2018-03-30T21:26:07.356Z,18.80
2018-03-30T21:28:35.188Z,18.63
2018-03-30T21:31:03.018Z,18.37
2018-03-30T21:33:30.896Z,22.37
2018-03-30T21:35:58.742Z,20.57
2018-03-30T21:38:26.549Z,22.47
2018-03-30T21:40:54.408Z,18.90
2018-03-30T21:43:22.226Z,20.33
2018-03-30T21:45:50.070Z,20.93
2018-03-30T21:48:17.902Z,18.97
2018-03-30T21:50:45.757Z,18.70
2018-03-30T21:53:13.606Z,18.83
2018-03-30T21:55:41.465Z,20.33
2018-03-30T21:58:09.278Z,20.60
2018-03-30T22:00:37.914Z,18.57
2018-03-30T22:03:05.739Z,20.53
2018-03-30T22:05:34.354Z,17.13
2018-03-30T22:08:02.188Z,19.70
2018-03-30T22:10:30.816Z,17.13
2018-03-30T22:12:58.669Z,20.10
2018-03-30T22:15:26.545Z,16.93
2018-03-30T22:17:54.366Z,19.17
2018-03-30T22:20:22.954Z,18.90
2018-03-30T22:22:51.573Z,20.30
2018-03-30T22:25:19.399Z,19.80
2018-03-30T22:27:48.031Z,17.73
2018-03-30T22:30:15.862Z,17.80
2018-03-30T22:32:43.722Z,19.30
2018-03-30T22:35:12.312Z,18.40
2018-03-30T22:37:40.913Z,18.57
2018-03-30T22:40:08.738Z,20.53
2018-03-30T22:42:36.575Z,19.73
2018-03-30T22:45:04.400Z,18.70
2018-03-30T22:47:32.994Z,20.27
2018-03-30T22:50:00.817Z,18.57
2018-03-30T22:52:28.662Z,20.10
2018-03-30T22:54:56.498Z,18.57
2018-03-30T22:57:24.351Z,21.87
2018-03-30T22:59:52.187Z,18.13
2018-03-30T23:02:20.798Z,19.17
2018-03-30T23:04:48.654Z,20.53
2018-03-30T23:07:16.467Z,19.73
2018-03-30T23:09:44.302Z,20.90
2018-03-30T23:12:12.174Z,17.20
2018-03-30T23:14:39.994Z,17.23
2018-03-30T23:17:08.619Z,18.60
2018-03-30T23:19:36.439Z,14.97
2018-03-30T23:22:04.302Z,17.53
2018-03-30T23:24:32.506Z,17.80
2018-03-30T23:27:00.326Z,20.10
2018-03-30T23:29:28.438Z,17.13
2018-03-30T23:31:56.257Z,16.83
2018-03-30T23:34:24.906Z,15.20
2018-03-30T23:36:52.713Z,16.30
2018-03-30T23:39:20.562Z,17.97
2018-03-30T23:41:48.406Z,17.20
2018-03-30T23:44:16.258Z,17.37
2018-03-30T23:46:44.074Z,16.00
2018-03-30T23:49:11.922Z,18.00
2018-03-30T23:51:39.726Z,16.87
2018-03-30T23:54:08.343Z,16.67
2018-03-30T23:56:36.166Z,18.33
2018-03-30T23:59:04.014Z,16.93
